sensor_id;sensor_type;location;lat;lon;timestamp;temperature;humidity
3638;DHT22;1835;50.068;8.154;2022-10-16T00:01:28;15.70;99.90
3638;DHT22;1835;50.068;8.154;2022-10-16T00:03:58;15.70;99.90
3638;DHT22;1835;50.068;8.154;2022-10-16T00:06:28;15.70;99.90
3638;DHT22;1835;50.068;8.154;2022-10-16T00:09:00;15.80;99.90
3638;DHT22;1835;50.068;8.154;2022-10-16T00:11:30;15.80;99.90
3638;DHT22;1835;50.068;8.154;2022-10-16T00:14:01;15.80;99.90
3638;DHT22;1835;50.068;8.154;2022-10-16T00:16:30;15.80;99.90
3638;DHT22;1835;50.068;8.154;2022-10-16T00:18:58;15.90;99.90
3638;DHT22;1835;50.068;8.154;2022-10-16T00:21:28;15.90;99.90
3638;DHT22;1835;50.068;8.154;2022-10-16T00:24:00;15.90;99.90
3638;DHT22;1835;50.068;8.154;2022-10-16T00:26:32;15.80;99.90
3638;DHT22;1835;50.068;8.154;2022-10-16T00:29:02;15.80;99.90
3638;DHT22;1835;50.068;8.154;2022-10-16T00:31:30;15.80;99.90
3638;DHT22;1835;50.068;8.154;2022-10-16T00:33:58;15.80;99.90
3638;DHT22;1835;50.068;8.154;2022-10-16T00:36:27;15.70;99.90
3638;DHT22;1835;50.068;8.154;2022-10-16T00:38:56;15.70;99.90
3638;DHT22;1835;50.068;8.154;2022-10-16T00:41:33;15.70;99.90
3638;DHT22;1835;50.068;8.154;2022-10-16T00:44:03;15.70;99.90
3638;DHT22;1835;50.068;8.154;2022-10-16T00:47:09;15.60;99.90
3638;DHT22;1835;50.068;8.154;2022-10-16T00:49:39;15.70;99.90
3638;DHT22;1835;50.068;8.154;2022-10-16T00:52:07;15.70;99.90
3638;DHT22;1835;50.068;8.154;2022-10-16T00:54:35;15.70;99.90
3638;DHT22;1835;50.068;8.154;2022-10-16T00:57:07;15.70;99.90
3638;DHT22;1835;50.068;8.154;2022-10-16T00:59:38;15.70;99.90
3638;DHT22;1835;50.068;8.154;2022-10-16T01:02:09;15.70;99.90
3638;DHT22;1835;50.068;8.154;2022-10-16T01:04:40;15.80;99.90
3638;DHT22;1835;50.068;8.154;2022-10-16T01:07:14;15.80;99.90
3638;DHT22;1835;50.068;8.154;2022-10-16T01:09:58;15.90;99.90
3638;DHT22;1835;50.068;8.154;2022-10-16T01:12:40;15.80;99.90
3638;DHT22;1835;50.068;8.154;2022-10-16T01:15:19;15.70;99.90
3638;DHT22;1835;50.068;8.154;2022-10-16T01:17:57;15.70;99.90
3638;DHT22;1835;50.068;8.154;2022-10-16T01:20:30;15.80;99.90
3638;DHT22;1835;50.068;8.154;2022-10-16T01:23:10;15.80;99.90
3638;DHT22;1835;50.068;8.154;2022-10-16T01:26:10;15.80;99.90
3638;DHT22;1835;50.068;8.154;2022-10-16T01:28:54;15.80;99.90
3638;DHT22;1835;50.068;8.154;2022-10-16T01:31:26;15.80;99.90
3638;DHT22;1835;50.068;8.154;2022-10-16T01:34:00;15.80;99.90
3638;DHT22;1835;50.068;8.154;2022-10-16T01:36:35;15.80;99.90
3638;DHT22;1835;50.068;8.154;2022-10-16T01:39:07;15.90;99.90
3638;DHT22;1835;50.068;8.154;2022-10-16T01:41:40;15.90;99.90
3638;DHT22;1835;50.068;8.154;2022-10-16T01:44:16;15.90;99.90
3638;DHT22;1835;50.068;8.154;2022-10-16T01:46:49;15.90;99.90
3638;DHT22;1835;50.068;8.154;2022-10-16T01:49:20;15.90;99.90
3638;DHT22;1835;50.068;8.154;2022-10-16T01:51:54;16.00;99.90
3638;DHT22;1835;50.068;8.154;2022-10-16T01:54:26;16.00;99.90
3638;DHT22;1835;50.068;8.154;2022-10-16T01:56:56;15.90;99.90
3638;DHT22;1835;50.068;8.154;2022-10-16T01:59:28;15.90;99.90
3638;DHT22;1835;50.068;8.154;2022-10-16T02:02:00;16.00;99.90
3638;DHT22;1835;50.068;8.154;2022-10-16T02:04:36;15.90;99.90
3638;DHT22;1835;50.068;8.154;2022-10-16T02:07:06;16.00;99.90
3638;DHT22;1835;50.068;8.154;2022-10-16T02:09:38;15.90;99.90
3638;DHT22;1835;50.068;8.154;2022-10-16T02:12:11;15.90;99.90
3638;DHT22;1835;50.068;8.154;2022-10-16T02:14:43;15.90;99.90
3638;DHT22;1835;50.068;8.154;2022-10-16T02:17:12;15.90;99.90
3638;DHT22;1835;50.068;8.154;2022-10-16T02:19:42;16.00;99.90
3638;DHT22;1835;50.068;8.154;2022-10-16T02:22:22;16.00;99.90
3638;DHT22;1835;50.068;8.154;2022-10-16T02:24:57;15.90;99.90
3638;DHT22;1835;50.068;8.154;2022-10-16T02:27:30;15.90;99.90
3638;DHT22;1835;50.068;8.154;2022-10-16T02:30:09;15.90;99.90
3638;DHT22;1835;50.068;8.154;2022-10-16T02:32:44;16.00;99.90
3638;DHT22;1835;50.068;8.154;2022-10-16T02:35:14;16.10;99.90
3638;DHT22;1835;50.068;8.154;2022-10-16T02:37:47;16.10;99.90
3638;DHT22;1835;50.068;8.154;2022-10-16T02:40:16;16.00;99.90
3638;DHT22;1835;50.068;8.154;2022-10-16T02:42:51;16.00;99.90
3638;DHT22;1835;50.068;8.154;2022-10-16T02:45:23;16.00;99.90
3638;DHT22;1835;50.068;8.154;2022-10-16T02:47:52;15.90;99.90
3638;DHT22;1835;50.068;8.154;2022-10-16T02:50:20;16.00;99.90
3638;DHT22;1835;50.068;8.154;2022-10-16T02:52:48;16.00;99.90
3638;DHT22;1835;50.068;8.154;2022-10-16T02:55:16;16.00;99.90
3638;DHT22;1835;50.068;8.154;2022-10-16T02:57:44;16.00;99.90
3638;DHT22;1835;50.068;8.154;2022-10-16T03:00:15;16.00;99.90
3638;DHT22;1835;50.068;8.154;2022-10-16T03:02:45;16.00;99.90
3638;DHT22;1835;50.068;8.154;2022-10-16T03:05:14;16.00;99.90
3638;DHT22;1835;50.068;8.154;2022-10-16T03:07:42;15.90;99.90
3638;DHT22;1835;50.068;8.154;2022-10-16T03:10:10;16.00;99.90
3638;DHT22;1835;50.068;8.154;2022-10-16T03:12:38;16.10;99.90
3638;DHT22;1835;50.068;8.154;2022-10-16T03:15:07;16.10;99.90
3638;DHT22;1835;50.068;8.154;2022-10-16T03:17:35;16.00;99.90
3638;DHT22;1835;50.068;8.154;2022-10-16T03:20:06;16.00;99.90
3638;DHT22;1835;50.068;8.154;2022-10-16T03:22:34;16.00;99.90
3638;DHT22;1835;50.068;8.154;2022-10-16T03:25:03;16.00;99.90
3638;DHT22;1835;50.068;8.154;2022-10-16T03:27:31;16.00;99.90
3638;DHT22;1835;50.068;8.154;2022-10-16T03:29:59;16.00;99.90
3638;DHT22;1835;50.068;8.154;2022-10-16T03:32:27;16.00;99.90
3638;DHT22;1835;50.068;8.154;2022-10-16T03:34:55;16.00;99.90
3638;DHT22;1835;50.068;8.154;2022-10-16T03:37:24;16.00;99.90
3638;DHT22;1835;50.068;8.154;2022-10-16T03:39:53;16.00;99.90
3638;DHT22;1835;50.068;8.154;2022-10-16T03:42:21;16.10;99.90
3638;DHT22;1835;50.068;8.154;2022-10-16T03:44:49;16.10;99.90
3638;DHT22;1835;50.068;8.154;2022-10-16T03:47:17;16.10;99.90
3638;DHT22;1835;50.068;8.154;2022-10-16T03:49:48;16.00;99.90
3638;DHT22;1835;50.068;8.154;2022-10-16T03:52:16;16.00;99.90
3638;DHT22;1835;50.068;8.154;2022-10-16T03:54:50;16.00;99.90
3638;DHT22;1835;50.068;8.154;2022-10-16T03:57:19;16.00;99.90
3638;DHT22;1835;50.068;8.154;2022-10-16T03:59:47;16.10;99.90
3638;DHT22;1835;50.068;8.154;2022-10-16T04:02:17;16.10;99.90
3638;DHT22;1835;50.068;8.154;2022-10-16T04:04:45;16.10;99.90
3638;DHT22;1835;50.068;8.154;2022-10-16T04:07:13;16.10;99.90
3638;DHT22;1835;50.068;8.154;2022-10-16T04:09:41;16.00;99.90
3638;DHT22;1835;50.068;8.154;2022-10-16T04:12:10;16.10;99.90
3638;DHT22;1835;50.068;8.154;2022-10-16T04:14:38;16.10;99.90
3638;DHT22;1835;50.068;8.154;2022-10-16T04:17:06;16.10;99.90
3638;DHT22;1835;50.068;8.154;2022-10-16T04:19:34;16.10;99.90
3638;DHT22;1835;50.068;8.154;2022-10-16T04:22:02;16.10;99.90
3638;DHT22;1835;50.068;8.154;2022-10-16T04:24:30;16.10;99.90
3638;DHT22;1835;50.068;8.154;2022-10-16T04:26:58;16.10;99.90
3638;DHT22;1835;50.068;8.154;2022-10-16T04:29:28;16.10;99.90
3638;DHT22;1835;50.068;8.154;2022-10-16T04:31:56;16.10;99.90
3638;DHT22;1835;50.068;8.154;2022-10-16T04:34:24;16.10;99.90
3638;DHT22;1835;50.068;8.154;2022-10-16T04:36:52;16.10;99.90
3638;DHT22;1835;50.068;8.154;2022-10-16T04:39:20;16.10;99.90
3638;DHT22;1835;50.068;8.154;2022-10-16T04:41:48;16.10;99.90
3638;DHT22;1835;50.068;8.154;2022-10-16T04:44:16;16.10;99.90
3638;DHT22;1835;50.068;8.154;2022-10-16T04:46:46;16.10;99.90
3638;DHT22;1835;50.068;8.154;2022-10-16T04:49:14;16.20;99.90
3638;DHT22;1835;50.068;8.154;2022-10-16T04:51:42;16.10;99.90
3638;DHT22;1835;50.068;8.154;2022-10-16T04:54:10;16.10;99.90
3638;DHT22;1835;50.068;8.154;2022-10-16T04:56:38;16.20;99.90
3638;DHT22;1835;50.068;8.154;2022-10-16T04:59:13;16.10;99.90
3638;DHT22;1835;50.068;8.154;2022-10-16T05:01:41;16.10;99.90
3638;DHT22;1835;50.068;8.154;2022-10-16T05:04:11;16.20;99.90
3638;DHT22;1835;50.068;8.154;2022-10-16T05:06:41;16.10;99.90
3638;DHT22;1835;50.068;8.154;2022-10-16T05:09:10;16.20;99.90
3638;DHT22;1835;50.068;8.154;2022-10-16T05:11:38;16.20;99.90
3638;DHT22;1835;50.068;8.154;2022-10-16T05:14:06;16.20;99.90
3638;DHT22;1835;50.068;8.154;2022-10-16T05:16:34;16.10;99.90
3638;DHT22;1835;50.068;8.154;2022-10-16T05:19:02;16.10;99.90
3638;DHT22;1835;50.068;8.154;2022-10-16T05:21:51;16.10;99.90
3638;DHT22;1835;50.068;8.154;2022-10-16T05:24:19;16.10;99.90
3638;DHT22;1835;50.068;8.154;2022-10-16T05:26:47;16.00;99.90
3638;DHT22;1835;50.068;8.154;2022-10-16T05:29:15;16.10;99.90
3638;DHT22;1835;50.068;8.154;2022-10-16T05:31:43;16.10;99.90
3638;DHT22;1835;50.068;8.154;2022-10-16T05:34:11;16.10;99.90
3638;DHT22;1835;50.068;8.154;2022-10-16T05:36:39;16.10;99.90
3638;DHT22;1835;50.068;8.154;2022-10-16T05:39:09;16.00;99.90
3638;DHT22;1835;50.068;8.154;2022-10-16T05:41:37;16.10;99.90
3638;DHT22;1835;50.068;8.154;2022-10-16T05:44:05;16.10;99.90
3638;DHT22;1835;50.068;8.154;2022-10-16T05:46:33;16.10;99.90
3638;DHT22;1835;50.068;8.154;2022-10-16T05:49:01;16.10;99.90
3638;DHT22;1835;50.068;8.154;2022-10-16T05:51:29;16.10;99.90
3638;DHT22;1835;50.068;8.154;2022-10-16T05:53:57;16.10;99.90
3638;DHT22;1835;50.068;8.154;2022-10-16T05:56:27;16.10;99.90
3638;DHT22;1835;50.068;8.154;2022-10-16T05:58:55;16.10;99.90
3638;DHT22;1835;50.068;8.154;2022-10-16T06:01:23;16.10;99.90
3638;DHT22;1835;50.068;8.154;2022-10-16T06:03:51;16.10;99.90
3638;DHT22;1835;50.068;8.154;2022-10-16T06:06:22;16.10;99.90
3638;DHT22;1835;50.068;8.154;2022-10-16T06:08:53;16.10;99.90
3638;DHT22;1835;50.068;8.154;2022-10-16T06:11:23;16.10;99.90
3638;DHT22;1835;50.068;8.154;2022-10-16T06:13:56;16.10;99.90
3638;DHT22;1835;50.068;8.154;2022-10-16T06:16:26;16.10;99.90
3638;DHT22;1835;50.068;8.154;2022-10-16T06:18:55;16.10;99.90
3638;DHT22;1835;50.068;8.154;2022-10-16T06:21:26;16.10;99.90
3638;DHT22;1835;50.068;8.154;2022-10-16T06:23:56;16.10;99.90
3638;DHT22;1835;50.068;8.154;2022-10-16T06:26:26;16.20;99.90
3638;DHT22;1835;50.068;8.154;2022-10-16T06:28:58;16.20;99.90
3638;DHT22;1835;50.068;8.154;2022-10-16T06:31:27;16.20;99.90
3638;DHT22;1835;50.068;8.154;2022-10-16T06:33:58;16.20;99.90
3638;DHT22;1835;50.068;8.154;2022-10-16T06:36:26;16.20;99.90
3638;DHT22;1835;50.068;8.154;2022-10-16T06:38:54;16.20;99.90
3638;DHT22;1835;50.068;8.154;2022-10-16T06:41:23;16.20;99.90
3638;DHT22;1835;50.068;8.154;2022-10-16T06:43:51;16.10;99.90
3638;DHT22;1835;50.068;8.154;2022-10-16T06:46:23;16.20;99.90
3638;DHT22;1835;50.068;8.154;2022-10-16T06:48:52;16.20;99.90
3638;DHT22;1835;50.068;8.154;2022-10-16T06:51:22;16.20;99.90
3638;DHT22;1835;50.068;8.154;2022-10-16T06:53:53;16.20;99.90
3638;DHT22;1835;50.068;8.154;2022-10-16T06:56:32;16.20;99.90
3638;DHT22;1835;50.068;8.154;2022-10-16T06:59:01;16.30;99.90
3638;DHT22;1835;50.068;8.154;2022-10-16T07:01:31;16.40;99.90
3638;DHT22;1835;50.068;8.154;2022-10-16T07:04:00;16.30;99.90
3638;DHT22;1835;50.068;8.154;2022-10-16T07:06:32;16.30;99.90
3638;DHT22;1835;50.068;8.154;2022-10-16T07:09:03;16.40;99.90
3638;DHT22;1835;50.068;8.154;2022-10-16T07:11:32;16.40;99.90
3638;DHT22;1835;50.068;8.154;2022-10-16T07:14:01;16.40;99.90
3638;DHT22;1835;50.068;8.154;2022-10-16T07:16:32;16.40;99.90
3638;DHT22;1835;50.068;8.154;2022-10-16T07:19:02;16.40;99.90
3638;DHT22;1835;50.068;8.154;2022-10-16T07:21:33;16.40;99.90
3638;DHT22;1835;50.068;8.154;2022-10-16T07:24:04;16.50;99.90
3638;DHT22;1835;50.068;8.154;2022-10-16T07:26:35;16.50;99.90
3638;DHT22;1835;50.068;8.154;2022-10-16T07:29:06;16.60;99.90
3638;DHT22;1835;50.068;8.154;2022-10-16T07:31:36;16.60;99.90
3638;DHT22;1835;50.068;8.154;2022-10-16T07:34:05;16.60;99.90
3638;DHT22;1835;50.068;8.154;2022-10-16T07:36:33;16.60;99.90
3638;DHT22;1835;50.068;8.154;2022-10-16T07:39:01;16.60;99.90
3638;DHT22;1835;50.068;8.154;2022-10-16T07:41:29;16.60;99.90
3638;DHT22;1835;50.068;8.154;2022-10-16T07:43:59;16.60;99.90
3638;DHT22;1835;50.068;8.154;2022-10-16T07:46:27;16.60;99.90
3638;DHT22;1835;50.068;8.154;2022-10-16T07:48:57;16.60;99.90
3638;DHT22;1835;50.068;8.154;2022-10-16T07:51:26;16.70;99.90
3638;DHT22;1835;50.068;8.154;2022-10-16T07:53:54;16.80;99.90
3638;DHT22;1835;50.068;8.154;2022-10-16T07:56:23;16.80;99.90
3638;DHT22;1835;50.068;8.154;2022-10-16T07:58:51;16.80;99.90
3638;DHT22;1835;50.068;8.154;2022-10-16T08:01:20;16.90;99.90
3638;DHT22;1835;50.068;8.154;2022-10-16T08:03:49;16.90;99.90
3638;DHT22;1835;50.068;8.154;2022-10-16T08:06:21;17.00;99.90
3638;DHT22;1835;50.068;8.154;2022-10-16T08:08:54;17.00;99.90
3638;DHT22;1835;50.068;8.154;2022-10-16T08:11:23;17.00;99.90
3638;DHT22;1835;50.068;8.154;2022-10-16T08:13:51;17.10;99.90
3638;DHT22;1835;50.068;8.154;2022-10-16T08:16:20;17.10;99.90
3638;DHT22;1835;50.068;8.154;2022-10-16T08:18:49;17.30;99.90
3638;DHT22;1835;50.068;8.154;2022-10-16T08:21:20;17.40;99.90
3638;DHT22;1835;50.068;8.154;2022-10-16T08:23:50;17.50;99.90
3638;DHT22;1835;50.068;8.154;2022-10-16T08:26:25;17.50;99.90
3638;DHT22;1835;50.068;8.154;2022-10-16T08:28:54;17.50;99.90
3638;DHT22;1835;50.068;8.154;2022-10-16T08:31:22;17.50;99.90
3638;DHT22;1835;50.068;8.154;2022-10-16T08:33:51;17.40;99.90
3638;DHT22;1835;50.068;8.154;2022-10-16T08:36:20;17.40;99.90
3638;DHT22;1835;50.068;8.154;2022-10-16T08:38:49;17.30;99.90
3638;DHT22;1835;50.068;8.154;2022-10-16T08:41:27;17.30;99.90
3638;DHT22;1835;50.068;8.154;2022-10-16T08:44:28;17.30;99.90
3638;DHT22;1835;50.068;8.154;2022-10-16T08:47:11;17.30;99.90
3638;DHT22;1835;50.068;8.154;2022-10-16T08:49:46;17.30;99.90
3638;DHT22;1835;50.068;8.154;2022-10-16T08:52:22;17.30;99.90
3638;DHT22;1835;50.068;8.154;2022-10-16T08:54:56;17.30;99.90
3638;DHT22;1835;50.068;8.154;2022-10-16T08:57:25;17.40;99.90
3638;DHT22;1835;50.068;8.154;2022-10-16T08:59:54;17.40;99.90
3638;DHT22;1835;50.068;8.154;2022-10-16T09:02:31;17.40;99.90
3638;DHT22;1835;50.068;8.154;2022-10-16T09:05:17;17.40;99.90
3638;DHT22;1835;50.068;8.154;2022-10-16T09:07:59;17.40;99.90
3638;DHT22;1835;50.068;8.154;2022-10-16T09:10:43;17.50;99.90
3638;DHT22;1835;50.068;8.154;2022-10-16T09:13:20;17.50;99.90
3638;DHT22;1835;50.068;8.154;2022-10-16T09:15:59;17.50;99.90
3638;DHT22;1835;50.068;8.154;2022-10-16T09:18:36;17.50;99.90
3638;DHT22;1835;50.068;8.154;2022-10-16T09:21:14;17.60;99.90
3638;DHT22;1835;50.068;8.154;2022-10-16T09:23:45;17.50;99.90
3638;DHT22;1835;50.068;8.154;2022-10-16T09:26:14;17.50;99.90
3638;DHT22;1835;50.068;8.154;2022-10-16T09:28:44;17.60;99.90
3638;DHT22;1835;50.068;8.154;2022-10-16T09:31:17;17.60;99.90
3638;DHT22;1835;50.068;8.154;2022-10-16T09:33:50;17.60;99.90
3638;DHT22;1835;50.068;8.154;2022-10-16T09:36:23;17.60;99.90
3638;DHT22;1835;50.068;8.154;2022-10-16T09:39:04;17.70;99.90
3638;DHT22;1835;50.068;8.154;2022-10-16T09:41:34;17.80;99.90
3638;DHT22;1835;50.068;8.154;2022-10-16T09:44:05;17.80;99.90
3638;DHT22;1835;50.068;8.154;2022-10-16T09:46:35;17.90;99.90
3638;DHT22;1835;50.068;8.154;2022-10-16T09:49:16;17.90;99.90
3638;DHT22;1835;50.068;8.154;2022-10-16T09:51:48;17.70;99.90
3638;DHT22;1835;50.068;8.154;2022-10-16T09:54:20;17.70;99.90
3638;DHT22;1835;50.068;8.154;2022-10-16T09:56:48;17.50;99.90
3638;DHT22;1835;50.068;8.154;2022-10-16T09:59:20;17.50;99.90
3638;DHT22;1835;50.068;8.154;2022-10-16T10:01:51;17.60;99.90
3638;DHT22;1835;50.068;8.154;2022-10-16T10:04:22;17.80;99.90
3638;DHT22;1835;50.068;8.154;2022-10-16T10:06:53;18.10;99.90
3638;DHT22;1835;50.068;8.154;2022-10-16T10:09:25;18.20;99.90
3638;DHT22;1835;50.068;8.154;2022-10-16T10:11:55;18.40;99.90
3638;DHT22;1835;50.068;8.154;2022-10-16T10:14:30;18.50;99.90
3638;DHT22;1835;50.068;8.154;2022-10-16T10:17:12;18.70;99.90
3638;DHT22;1835;50.068;8.154;2022-10-16T10:19:46;18.80;99.90
3638;DHT22;1835;50.068;8.154;2022-10-16T10:22:18;19.30;99.90
3638;DHT22;1835;50.068;8.154;2022-10-16T10:28:01;20.60;99.90
3638;DHT22;1835;50.068;8.154;2022-10-16T10:30:51;21.20;99.90
3638;DHT22;1835;50.068;8.154;2022-10-16T10:33:29;21.50;99.90
3638;DHT22;1835;50.068;8.154;2022-10-16T10:36:09;21.40;99.90
3638;DHT22;1835;50.068;8.154;2022-10-16T10:38:56;21.50;99.90
3638;DHT22;1835;50.068;8.154;2022-10-16T10:41:55;21.50;99.90
3638;DHT22;1835;50.068;8.154;2022-10-16T10:44:52;21.50;99.90
3638;DHT22;1835;50.068;8.154;2022-10-16T10:47:41;21.30;99.90
3638;DHT22;1835;50.068;8.154;2022-10-16T10:50:18;21.20;99.90
3638;DHT22;1835;50.068;8.154;2022-10-16T10:52:58;21.00;99.90
3638;DHT22;1835;50.068;8.154;2022-10-16T10:55:36;20.60;99.90
3638;DHT22;1835;50.068;8.154;2022-10-16T10:58:23;20.40;99.90
3638;DHT22;1835;50.068;8.154;2022-10-16T11:01:07;20.30;99.90
3638;DHT22;1835;50.068;8.154;2022-10-16T11:03:51;20.10;99.90
3638;DHT22;1835;50.068;8.154;2022-10-16T11:06:31;20.20;99.90
3638;DHT22;1835;50.068;8.154;2022-10-16T11:09:08;20.30;99.90
3638;DHT22;1835;50.068;8.154;2022-10-16T11:11:41;20.20;99.90
3638;DHT22;1835;50.068;8.154;2022-10-16T11:14:16;20.40;99.90
3638;DHT22;1835;50.068;8.154;2022-10-16T11:16:51;20.40;99.90
3638;DHT22;1835;50.068;8.154;2022-10-16T11:19:30;20.40;99.90
3638;DHT22;1835;50.068;8.154;2022-10-16T11:22:06;20.50;99.90
3638;DHT22;1835;50.068;8.154;2022-10-16T11:24:44;20.50;99.90
3638;DHT22;1835;50.068;8.154;2022-10-16T11:27:16;20.70;99.90
3638;DHT22;1835;50.068;8.154;2022-10-16T11:29:53;20.70;99.90
3638;DHT22;1835;50.068;8.154;2022-10-16T11:32:30;20.70;99.90
3638;DHT22;1835;50.068;8.154;2022-10-16T11:35:06;20.60;99.90
3638;DHT22;1835;50.068;8.154;2022-10-16T11:37:41;20.60;99.90
3638;DHT22;1835;50.068;8.154;2022-10-16T11:40:19;20.50;99.90
3638;DHT22;1835;50.068;8.154;2022-10-16T11:42:54;20.50;99.90
3638;DHT22;1835;50.068;8.154;2022-10-16T11:45:33;20.50;99.90
3638;DHT22;1835;50.068;8.154;2022-10-16T11:48:12;20.40;99.90
3638;DHT22;1835;50.068;8.154;2022-10-16T11:50:50;20.50;99.90
3638;DHT22;1835;50.068;8.154;2022-10-16T11:53:29;20.50;99.90
3638;DHT22;1835;50.068;8.154;2022-10-16T11:56:05;20.40;99.90
3638;DHT22;1835;50.068;8.154;2022-10-16T11:58:37;20.30;99.90
3638;DHT22;1835;50.068;8.154;2022-10-16T12:01:22;20.40;99.90
3638;DHT22;1835;50.068;8.154;2022-10-16T12:04:05;20.50;99.90
3638;DHT22;1835;50.068;8.154;2022-10-16T12:06:44;20.50;99.90
3638;DHT22;1835;50.068;8.154;2022-10-16T12:09:21;20.50;99.90
3638;DHT22;1835;50.068;8.154;2022-10-16T12:11:50;20.50;99.90
3638;DHT22;1835;50.068;8.154;2022-10-16T12:14:34;20.40;99.90
3638;DHT22;1835;50.068;8.154;2022-10-16T12:17:33;20.40;99.90
3638;DHT22;1835;50.068;8.154;2022-10-16T12:20:20;20.30;99.90
3638;DHT22;1835;50.068;8.154;2022-10-16T12:22:56;20.40;99.90
3638;DHT22;1835;50.068;8.154;2022-10-16T12:25:26;20.40;99.90
3638;DHT22;1835;50.068;8.154;2022-10-16T12:27:58;20.40;99.90
3638;DHT22;1835;50.068;8.154;2022-10-16T12:30:30;20.40;99.90
3638;DHT22;1835;50.068;8.154;2022-10-16T12:33:05;20.40;99.90
3638;DHT22;1835;50.068;8.154;2022-10-16T12:35:43;20.30;99.90
3638;DHT22;1835;50.068;8.154;2022-10-16T12:38:17;20.30;99.90
3638;DHT22;1835;50.068;8.154;2022-10-16T12:40:54;20.30;99.90
3638;DHT22;1835;50.068;8.154;2022-10-16T12:43:36;20.50;99.90
3638;DHT22;1835;50.068;8.154;2022-10-16T12:46:23;20.60;99.90
3638;DHT22;1835;50.068;8.154;2022-10-16T12:49:35;20.60;99.90
3638;DHT22;1835;50.068;8.154;2022-10-16T12:52:25;20.70;99.90
3638;DHT22;1835;50.068;8.154;2022-10-16T12:54:57;20.80;99.90
3638;DHT22;1835;50.068;8.154;2022-10-16T12:57:38;20.90;99.90
3638;DHT22;1835;50.068;8.154;2022-10-16T13:00:19;20.80;99.90
3638;DHT22;1835;50.068;8.154;2022-10-16T13:06:28;20.60;99.90
3638;DHT22;1835;50.068;8.154;2022-10-16T13:09:08;20.60;99.90
3638;DHT22;1835;50.068;8.154;2022-10-16T13:12:04;20.70;99.90
3638;DHT22;1835;50.068;8.154;2022-10-16T13:15:16;20.70;99.90
3638;DHT22;1835;50.068;8.154;2022-10-16T13:18:04;20.90;99.90
3638;DHT22;1835;50.068;8.154;2022-10-16T13:20:50;21.00;99.90
3638;DHT22;1835;50.068;8.154;2022-10-16T13:23:31;21.20;99.90
3638;DHT22;1835;50.068;8.154;2022-10-16T13:26:14;21.20;99.90
3638;DHT22;1835;50.068;8.154;2022-10-16T13:28:46;21.20;99.90
3638;DHT22;1835;50.068;8.154;2022-10-16T13:31:18;21.30;99.90
3638;DHT22;1835;50.068;8.154;2022-10-16T13:33:50;21.30;99.90
3638;DHT22;1835;50.068;8.154;2022-10-16T13:36:22;21.30;99.90
3638;DHT22;1835;50.068;8.154;2022-10-16T13:39:06;21.30;99.90
3638;DHT22;1835;50.068;8.154;2022-10-16T13:41:38;21.40;99.90
3638;DHT22;1835;50.068;8.154;2022-10-16T13:44:13;21.40;99.90
3638;DHT22;1835;50.068;8.154;2022-10-16T13:46:43;21.40;99.90
3638;DHT22;1835;50.068;8.154;2022-10-16T13:49:13;21.40;99.90
3638;DHT22;1835;50.068;8.154;2022-10-16T13:51:54;21.40;99.90
3638;DHT22;1835;50.068;8.154;2022-10-16T13:54:25;21.40;99.90
3638;DHT22;1835;50.068;8.154;2022-10-16T13:56:55;21.40;99.90
3638;DHT22;1835;50.068;8.154;2022-10-16T13:59:36;21.40;99.90
3638;DHT22;1835;50.068;8.154;2022-10-16T14:02:19;21.30;99.90
3638;DHT22;1835;50.068;8.154;2022-10-16T14:04:50;21.40;99.90
3638;DHT22;1835;50.068;8.154;2022-10-16T14:07:23;21.40;99.90
3638;DHT22;1835;50.068;8.154;2022-10-16T14:09:54;21.30;99.90
3638;DHT22;1835;50.068;8.154;2022-10-16T14:12:23;21.30;99.90
3638;DHT22;1835;50.068;8.154;2022-10-16T14:14:55;21.30;99.90
3638;DHT22;1835;50.068;8.154;2022-10-16T14:17:26;21.20;99.90
3638;DHT22;1835;50.068;8.154;2022-10-16T14:19:56;21.20;99.90
3638;DHT22;1835;50.068;8.154;2022-10-16T14:22:32;21.10;99.90
3638;DHT22;1835;50.068;8.154;2022-10-16T14:25:20;21.00;99.90
3638;DHT22;1835;50.068;8.154;2022-10-16T14:28:01;21.10;99.90
3638;DHT22;1835;50.068;8.154;2022-10-16T14:30:32;21.10;99.90
3638;DHT22;1835;50.068;8.154;2022-10-16T14:33:02;21.10;99.90
3638;DHT22;1835;50.068;8.154;2022-10-16T14:35:33;21.10;99.90
3638;DHT22;1835;50.068;8.154;2022-10-16T14:38:04;21.10;99.90
3638;DHT22;1835;50.068;8.154;2022-10-16T14:40:35;21.00;99.90
3638;DHT22;1835;50.068;8.154;2022-10-16T14:43:05;21.00;99.90
3638;DHT22;1835;50.068;8.154;2022-10-16T14:45:34;20.90;99.90
3638;DHT22;1835;50.068;8.154;2022-10-16T14:48:06;20.80;99.90
3638;DHT22;1835;50.068;8.154;2022-10-16T14:50:45;20.80;99.90
3638;DHT22;1835;50.068;8.154;2022-10-16T14:53:14;20.70;99.90
3638;DHT22;1835;50.068;8.154;2022-10-16T14:55:44;20.60;99.90
3638;DHT22;1835;50.068;8.154;2022-10-16T14:58:15;20.60;99.90
3638;DHT22;1835;50.068;8.154;2022-10-16T15:00:48;20.50;99.90
3638;DHT22;1835;50.068;8.154;2022-10-16T15:03:16;20.50;99.90
3638;DHT22;1835;50.068;8.154;2022-10-16T15:05:44;20.50;99.90
3638;DHT22;1835;50.068;8.154;2022-10-16T15:08:13;20.50;99.90
3638;DHT22;1835;50.068;8.154;2022-10-16T15:10:44;20.40;99.90
3638;DHT22;1835;50.068;8.154;2022-10-16T15:13:13;20.40;99.90
3638;DHT22;1835;50.068;8.154;2022-10-16T15:15:43;20.40;99.90
3638;DHT22;1835;50.068;8.154;2022-10-16T15:18:11;20.30;99.90
3638;DHT22;1835;50.068;8.154;2022-10-16T15:20:41;20.30;99.90
3638;DHT22;1835;50.068;8.154;2022-10-16T15:23:13;20.30;99.90
3638;DHT22;1835;50.068;8.154;2022-10-16T15:25:46;20.20;99.90
3638;DHT22;1835;50.068;8.154;2022-10-16T15:28:16;20.20;99.90
3638;DHT22;1835;50.068;8.154;2022-10-16T15:30:45;20.20;99.90
3638;DHT22;1835;50.068;8.154;2022-10-16T15:33:15;20.10;99.90
3638;DHT22;1835;50.068;8.154;2022-10-16T15:35:47;20.10;99.90
3638;DHT22;1835;50.068;8.154;2022-10-16T15:38:16;20.10;99.90
3638;DHT22;1835;50.068;8.154;2022-10-16T15:40:49;20.00;99.90
3638;DHT22;1835;50.068;8.154;2022-10-16T15:43:17;20.00;99.90
3638;DHT22;1835;50.068;8.154;2022-10-16T15:45:59;20.00;99.90
3638;DHT22;1835;50.068;8.154;2022-10-16T15:48:29;19.90;99.90
3638;DHT22;1835;50.068;8.154;2022-10-16T15:50:57;19.90;99.90
3638;DHT22;1835;50.068;8.154;2022-10-16T15:53:25;19.80;99.90
3638;DHT22;1835;50.068;8.154;2022-10-16T15:55:55;19.80;99.90
3638;DHT22;1835;50.068;8.154;2022-10-16T15:58:23;19.80;99.90
3638;DHT22;1835;50.068;8.154;2022-10-16T16:00:55;19.70;99.90
3638;DHT22;1835;50.068;8.154;2022-10-16T16:03:23;19.70;99.90
3638;DHT22;1835;50.068;8.154;2022-10-16T16:05:51;19.60;99.90
3638;DHT22;1835;50.068;8.154;2022-10-16T16:08:19;19.60;99.90
3638;DHT22;1835;50.068;8.154;2022-10-16T16:10:58;19.50;99.90
3638;DHT22;1835;50.068;8.154;2022-10-16T16:13:27;19.50;99.90
3638;DHT22;1835;50.068;8.154;2022-10-16T16:15:55;19.40;99.90
3638;DHT22;1835;50.068;8.154;2022-10-16T16:18:23;19.40;99.90
3638;DHT22;1835;50.068;8.154;2022-10-16T16:20:51;19.30;99.90
3638;DHT22;1835;50.068;8.154;2022-10-16T16:23:19;19.30;99.90
3638;DHT22;1835;50.068;8.154;2022-10-16T16:26:07;19.20;99.90
3638;DHT22;1835;50.068;8.154;2022-10-16T16:28:38;19.20;99.90
3638;DHT22;1835;50.068;8.154;2022-10-16T16:31:07;19.20;99.90
3638;DHT22;1835;50.068;8.154;2022-10-16T16:33:35;19.10;99.90
3638;DHT22;1835;50.068;8.154;2022-10-16T16:36:05;19.10;99.90
3638;DHT22;1835;50.068;8.154;2022-10-16T16:38:41;19.10;99.90
3638;DHT22;1835;50.068;8.154;2022-10-16T16:41:14;19.00;99.90
3638;DHT22;1835;50.068;8.154;2022-10-16T16:43:44;19.00;99.90
3638;DHT22;1835;50.068;8.154;2022-10-16T16:46:14;19.00;99.90